Time;durP1;ratioP1;P1;durP2;ratioP2;P2;SDS_P1;SDS_P2;PMS_P1;PMS_P2;Temp;Humidity;BMP_temperature;BMP_pressure;BME280_temperature;BME280_humidity;BME280_pressure;Samples;Min_cycle;Max_cycle;Signal;HPM_P1;HPM_P2
2023/05/12 00:02:06;;;;;;;9.82;5.72;;;15.90;99.90;;;;;;5030433;28;20517;-85
2023/05/12 00:04:32;;;;;;;9.63;5.60;;;15.90;99.90;;;;;;5050770;28;20083;-85
2023/05/12 00:06:58;;;;;;;9.50;5.82;;;15.90;99.90;;;;;;5026973;28;20025;-83
2023/05/12 00:09:24;;;;;;;10.27;6.00;;;15.90;99.90;;;;;;4996251;28;20051;-86
2023/05/12 00:11:50;;;;;;;9.48;5.40;;;15.90;99.90;;;;;;5036094;28;20092;-84
2023/05/12 00:14:16;;;;;;;10.57;5.93;;;15.90;99.90;;;;;;5026868;28;20378;-87
2023/05/12 00:16:42;;;;;;;9.60;5.82;;;15.90;99.90;;;;;;5063978;28;20223;-84
2023/05/12 00:19:08;;;;;;;10.65;6.00;;;15.90;99.90;;;;;;5025340;28;20497;-86
2023/05/12 00:21:34;;;;;;;9.98;5.63;;;16.00;99.90;;;;;;5018132;28;21176;-86
2023/05/12 00:24:01;;;;;;;9.63;5.93;;;16.00;99.90;;;;;;5047769;28;20078;-86
2023/05/12 00:26:27;;;;;;;10.15;6.15;;;16.00;99.90;;;;;;5006352;28;20200;-85
2023/05/12 00:28:53;;;;;;;10.32;6.00;;;16.00;99.90;;;;;;5019583;28;20024;-86
2023/05/12 00:31:18;;;;;;;9.93;6.00;;;15.90;99.90;;;;;;5031085;28;20017;-86
2023/05/12 00:33:46;;;;;;;10.27;5.93;;;16.00;99.90;;;;;;5026342;28;20786;-85
2023/05/12 00:36:11;;;;;;;10.77;6.05;;;15.90;99.90;;;;;;5028030;28;20025;-86
2023/05/12 00:38:37;;;;;;;10.67;5.87;;;16.00;99.90;;;;;;5006055;28;20087;-83
2023/05/12 00:41:03;;;;;;;10.57;6.00;;;15.90;99.90;;;;;;4992158;28;20024;-83
2023/05/12 00:43:30;;;;;;;11.02;6.57;;;15.90;99.90;;;;;;5036320;28;20219;-85
2023/05/12 00:45:56;;;;;;;11.30;6.17;;;15.90;99.90;;;;;;5026374;28;20244;-82
2023/05/12 00:48:22;;;;;;;11.07;6.32;;;15.90;99.90;;;;;;5031489;28;20039;-88
2023/05/12 00:50:48;;;;;;;10.85;6.47;;;15.90;99.90;;;;;;5025149;28;20017;-87
2023/05/12 00:53:14;;;;;;;10.77;6.32;;;15.90;99.90;;;;;;5023150;28;21134;-87
2023/05/12 00:55:41;;;;;;;10.70;6.30;;;15.90;99.90;;;;;;4989178;28;20568;-83
2023/05/12 00:58:07;;;;;;;10.85;6.57;;;15.90;99.90;;;;;;5031901;28;20453;-89
2023/05/12 01:00:33;;;;;;;10.15;6.10;;;15.90;99.90;;;;;;5007416;28;20434;-83
2023/05/12 01:02:59;;;;;;;10.45;5.95;;;15.90;99.90;;;;;;5033903;28;20028;-87
2023/05/12 01:05:35;;;;;;;9.57;5.93;;;15.90;99.90;;;;;;5021626;28;20494;-88
2023/05/12 01:08:02;;;;;;;9.60;6.10;;;15.90;99.90;;;;;;5023944;28;20066;-86
2023/05/12 01:10:27;;;;;;;10.48;6.28;;;15.90;99.90;;;;;;5001524;28;20029;-86
2023/05/12 01:12:53;;;;;;;10.30;6.03;;;15.90;99.90;;;;;;5049902;28;20221;-83
2023/05/12 01:15:19;;;;;;;8.83;5.67;;;15.90;99.90;;;;;;5028226;28;20025;-87
2023/05/12 01:17:56;;;;;;;9.40;5.82;;;15.80;99.90;;;;;;5032893;28;20033;-86
2023/05/12 01:20:24;;;;;;;9.50;5.63;;;15.80;99.90;;;;;;5031260;28;20035;-86
2023/05/12 01:22:51;;;;;;;10.43;5.97;;;15.90;99.90;;;;;;5025579;28;20075;-84
2023/05/12 01:25:20;;;;;;;10.03;6.13;;;15.80;99.90;;;;;;5009591;28;20039;-88
2023/05/12 01:27:47;;;;;;;10.98;6.43;;;15.80;99.90;;;;;;5026434;28;20048;-85
2023/05/12 01:30:16;;;;;;;10.40;5.97;;;15.80;99.90;;;;;;5035546;28;20028;-87
2023/05/12 01:32:42;;;;;;;9.55;5.80;;;15.80;99.90;;;;;;5041107;28;20227;-84
2023/05/12 01:35:09;;;;;;;10.40;6.03;;;15.90;99.90;;;;;;5037189;28;20033;-87
2023/05/12 01:37:35;;;;;;;9.80;5.83;;;15.90;99.90;;;;;;5028508;28;20102;-85
2023/05/12 01:40:01;;;;;;;9.75;6.07;;;15.90;99.90;;;;;;5013510;28;20013;-85
2023/05/12 01:42:27;;;;;;;10.80;5.75;;;15.90;99.90;;;;;;5025176;28;20305;-85
2023/05/12 01:44:53;;;;;;;10.88;6.63;;;15.90;99.90;;;;;;5023871;28;20024;-84
2023/05/12 01:47:20;;;;;;;10.23;6.13;;;15.80;99.90;;;;;;5050725;28;20111;-87
2023/05/12 01:49:46;;;;;;;10.03;6.07;;;15.90;99.90;;;;;;5036100;28;20108;-84
2023/05/12 01:52:12;;;;;;;10.43;6.38;;;15.80;99.90;;;;;;5033080;28;20553;-86
2023/05/12 01:54:38;;;;;;;11.18;5.88;;;15.90;99.90;;;;;;5021140;28;20616;-84
2023/05/12 01:57:04;;;;;;;11.17;6.73;;;15.90;99.90;;;;;;5029148;28;20493;-89
2023/05/12 01:59:30;;;;;;;10.50;6.50;;;15.90;99.90;;;;;;5037292;28;20410;-83
2023/05/12 02:01:56;;;;;;;9.68;5.88;;;15.80;99.90;;;;;;5025218;28;20021;-87
2023/05/12 02:04:22;;;;;;;10.65;5.95;;;15.80;99.90;;;;;;5045220;28;20025;-87
2023/05/12 02:06:48;;;;;;;10.13;6.17;;;15.80;99.90;;;;;;5033035;28;20017;-90
2023/05/12 02:09:14;;;;;;;11.90;6.70;;;15.80;99.90;;;;;;5025237;28;20092;-88
2023/05/12 02:11:40;;;;;;;9.63;6.07;;;15.80;99.90;;;;;;5063210;28;20110;-86
2023/05/12 02:14:06;;;;;;;10.57;5.97;;;15.80;99.90;;;;;;5027375;28;20036;-86
2023/05/12 02:16:32;;;;;;;10.00;6.00;;;15.80;99.90;;;;;;5035025;28;20325;-84
2023/05/12 02:18:57;;;;;;;10.63;5.85;;;15.80;99.90;;;;;;5011487;28;20028;-89
2023/05/12 02:21:23;;;;;;;9.48;5.90;;;15.70;99.90;;;;;;5037176;28;20025;-88
2023/05/12 02:23:49;;;;;;;10.13;5.90;;;15.70;99.90;;;;;;5027260;28;20025;-87
2023/05/12 02:26:15;;;;;;;9.73;5.65;;;15.70;99.90;;;;;;5004442;28;20037;-88
2023/05/12 02:28:41;;;;;;;8.43;5.40;;;15.70;99.90;;;;;;5007467;28;20455;-88
2023/05/12 02:31:07;;;;;;;8.50;4.75;;;15.70;99.90;;;;;;5033145;28;20067;-88
2023/05/12 02:33:33;;;;;;;8.10;4.78;;;15.70;99.90;;;;;;5034789;28;20086;-87
2023/05/12 02:35:59;;;;;;;7.60;4.53;;;15.70;99.90;;;;;;5025327;28;20112;-86
2023/05/12 02:38:25;;;;;;;5.90;3.65;;;15.60;99.90;;;;;;5021471;28;20107;-89
2023/05/12 02:40:51;;;;;;;6.97;3.35;;;15.60;99.90;;;;;;5046740;28;20769;-86
2023/05/12 02:43:17;;;;;;;7.17;3.50;;;15.50;99.90;;;;;;5005519;28;20528;-87
2023/05/12 02:45:42;;;;;;;5.80;3.47;;;15.50;99.90;;;;;;5010773;28;20401;-88
2023/05/12 02:48:08;;;;;;;5.68;3.50;;;15.40;99.90;;;;;;5029772;28;20017;-89
2023/05/12 02:50:34;;;;;;;5.97;3.30;;;15.30;99.90;;;;;;5025999;28;20542;-85
2023/05/12 02:53:00;;;;;;;5.75;3.13;;;15.20;99.90;;;;;;5014136;28;20056;-88
2023/05/12 02:55:26;;;;;;;5.90;3.07;;;15.30;99.90;;;;;;5018117;28;20024;-88
2023/05/12 02:57:52;;;;;;;5.50;3.15;;;15.20;99.90;;;;;;5005987;28;20017;-86
2023/05/12 03:00:18;;;;;;;4.45;2.85;;;15.20;99.90;;;;;;5026044;28;20040;-87
2023/05/12 03:02:44;;;;;;;4.80;2.88;;;15.10;99.90;;;;;;5035906;28;20252;-85
2023/05/12 03:05:10;;;;;;;4.57;2.93;;;15.10;99.90;;;;;;5010573;28;20021;-86
2023/05/12 03:07:36;;;;;;;4.75;3.03;;;15.10;99.90;;;;;;5042703;28;20060;-87
2023/05/12 03:10:02;;;;;;;5.82;2.97;;;15.20;99.90;;;;;;5055025;28;20032;-86
2023/05/12 03:12:28;;;;;;;5.57;3.00;;;15.10;99.90;;;;;;5044899;28;20090;-86
2023/05/12 03:14:55;;;;;;;5.00;3.10;;;15.10;99.90;;;;;;4989893;28;20024;-85
2023/05/12 03:17:20;;;;;;;5.65;3.25;;;15.10;99.90;;;;;;5027482;28;20039;-88
2023/05/12 03:19:46;;;;;;;5.32;3.03;;;15.10;99.90;;;;;;5035931;28;20017;-85
2023/05/12 03:22:13;;;;;;;7.03;3.13;;;15.10;99.90;;;;;;5029631;28;20452;-86
2023/05/12 03:24:39;;;;;;;4.55;2.83;;;15.10;99.90;;;;;;5032169;28;21292;-87
2023/05/12 03:27:06;;;;;;;4.78;2.72;;;15.10;99.90;;;;;;5027067;28;20636;-88
2023/05/12 03:29:32;;;;;;;5.95;3.28;;;15.10;99.90;;;;;;5006031;28;20682;-88
2023/05/12 03:31:58;;;;;;;3.80;2.60;;;15.10;99.90;;;;;;5049725;28;20029;-88
2023/05/12 03:34:23;;;;;;;5.80;2.92;;;15.00;99.90;;;;;;5032946;28;20548;-89
2023/05/12 03:36:49;;;;;;;5.03;3.00;;;15.00;99.90;;;;;;5036271;28;20167;-86
2023/05/12 03:39:15;;;;;;;4.60;2.70;;;15.00;99.90;;;;;;5020436;28;20029;-88
2023/05/12 03:41:41;;;;;;;6.10;3.42;;;15.00;99.90;;;;;;5013162;28;20496;-86
2023/05/12 03:44:07;;;;;;;5.50;2.83;;;15.00;99.90;;;;;;5034476;28;20013;-89
2023/05/12 03:46:33;;;;;;;4.28;2.70;;;15.00;99.90;;;;;;5014404;28;20025;-87
2023/05/12 03:49:00;;;;;;;4.60;2.92;;;15.00;99.90;;;;;;5022485;28;20128;-85
2023/05/12 03:51:26;;;;;;;5.17;3.00;;;15.00;99.90;;;;;;5013807;28;20120;-88
2023/05/12 03:53:52;;;;;;;4.70;2.60;;;15.00;99.90;;;;;;5022000;28;20292;-87
2023/05/12 03:56:18;;;;;;;4.32;2.60;;;15.00;99.90;;;;;;5022161;28;20126;-88
2023/05/12 03:58:46;;;;;;;4.55;3.00;;;15.00;99.90;;;;;;5036476;28;20029;-88
2023/05/12 04:01:12;;;;;;;4.73;2.73;;;15.10;99.90;;;;;;5015837;28;20116;-88
2023/05/12 04:03:40;;;;;;;6.25;2.80;;;15.00;99.90;;;;;;5023571;28;20272;-87
2023/05/12 04:06:06;;;;;;;3.80;2.38;;;15.00;99.90;;;;;;5057912;28;20468;-84
2023/05/12 04:08:32;;;;;;;4.55;2.80;;;15.00;99.90;;;;;;5012078;28;20115;-88
2023/05/12 04:10:59;;;;;;;4.17;2.57;;;15.00;99.90;;;;;;5052161;28;20020;-86
2023/05/12 04:13:33;;;;;;;4.43;2.83;;;15.00;99.90;;;;;;5040586;28;20040;-87
2023/05/12 04:15:59;;;;;;;4.30;2.53;;;15.00;99.90;;;;;;5041039;28;20389;-89
2023/05/12 04:18:26;;;;;;;4.55;2.75;;;15.00;99.90;;;;;;4985024;28;20380;-89
2023/05/12 04:20:53;;;;;;;4.10;2.42;;;15.00;99.90;;;;;;5035906;28;20487;-88
2023/05/12 04:23:20;;;;;;;5.80;2.93;;;15.00;99.90;;;;;;5051588;28;20403;-85
2023/05/12 04:25:46;;;;;;;5.35;2.88;;;15.00;99.90;;;;;;5059774;28;20661;-88
2023/05/12 04:28:12;;;;;;;4.65;2.67;;;15.00;99.90;;;;;;5034430;28;20025;-88
2023/05/12 04:30:41;;;;;;;4.05;2.58;;;15.00;99.90;;;;;;5052402;28;20036;-86
2023/05/12 04:33:10;;;;;;;4.13;2.60;;;15.00;99.90;;;;;;5015209;28;20017;-87
2023/05/12 04:35:35;;;;;;;4.15;2.55;;;14.90;99.90;;;;;;5036494;28;20033;-89
2023/05/12 04:38:02;;;;;;;3.90;2.45;;;14.90;99.90;;;;;;5049564;28;20029;-87
2023/05/12 04:40:28;;;;;;;3.92;2.50;;;14.90;99.90;;;;;;5017599;28;20268;-87
2023/05/12 04:42:54;;;;;;;3.63;2.30;;;14.90;99.90;;;;;;5041155;28;20419;-87
2023/05/12 04:45:20;;;;;;;5.33;2.50;;;14.90;99.90;;;;;;5030815;28;20104;-89
2023/05/12 04:47:45;;;;;;;5.30;3.08;;;14.90;99.90;;;;;;5016588;28;20029;-88
2023/05/12 04:50:12;;;;;;;4.72;3.08;;;14.90;99.90;;;;;;5011089;28;20116;-88
2023/05/12 04:52:38;;;;;;;4.90;3.28;;;14.90;99.90;;;;;;5031699;28;20269;-89
2023/05/12 04:55:05;;;;;;;4.83;3.37;;;14.90;99.90;;;;;;5028238;28;20021;-91
2023/05/12 04:57:31;;;;;;;4.80;2.92;;;14.90;99.90;;;;;;5018482;28;20181;-86
2023/05/12 04:59:58;;;;;;;4.60;3.30;;;14.90;99.90;;;;;;5037475;28;20033;-89
2023/05/12 05:02:25;;;;;;;5.95;4.28;;;14.90;99.90;;;;;;5031475;28;20593;-85
2023/05/12 05:04:51;;;;;;;4.37;3.13;;;14.90;99.90;;;;;;5007313;28;20889;-89
2023/05/12 05:07:17;;;;;;;5.88;3.70;;;14.80;99.90;;;;;;5016629;28;20021;-87
2023/05/12 05:09:43;;;;;;;4.60;3.20;;;14.80;99.90;;;;;;5031077;28;20131;-87
2023/05/12 05:12:10;;;;;;;4.20;2.80;;;14.80;99.90;;;;;;5020191;28;20025;-90
2023/05/12 05:14:35;;;;;;;3.60;2.30;;;14.80;99.90;;;;;;5036590;28;20517;-87
2023/05/12 05:17:01;;;;;;;3.67;2.13;;;14.80;99.90;;;;;;5031526;28;20021;-90
2023/05/12 05:19:28;;;;;;;3.60;2.50;;;14.80;99.90;;;;;;5033972;28;20090;-90
2023/05/12 05:21:54;;;;;;;4.10;2.22;;;14.80;99.90;;;;;;5010493;28;20112;-87
2023/05/12 05:24:20;;;;;;;2.75;1.70;;;14.80;99.90;;;;;;5016472;28;20031;-90
2023/05/12 05:26:46;;;;;;;3.60;2.23;;;14.80;99.90;;;;;;5029939;28;20024;-88
2023/05/12 05:29:12;;;;;;;3.13;1.70;;;14.70;99.90;;;;;;5027942;28;20059;-89
2023/05/12 05:31:38;;;;;;;3.35;2.10;;;14.70;99.90;;;;;;5007911;28;20283;-87
2023/05/12 05:34:04;;;;;;;3.07;1.97;;;14.70;99.90;;;;;;5036034;28;20021;-87
2023/05/12 05:36:29;;;;;;;3.53;1.98;;;14.70;99.90;;;;;;5010928;28;21790;-85
2023/05/12 05:38:55;;;;;;;3.50;2.08;;;14.70;99.90;;;;;;5023427;28;20028;-88
2023/05/12 05:41:22;;;;;;;3.40;2.03;;;14.70;99.90;;;;;;5034784;28;20378;-88
2023/05/12 05:43:48;;;;;;;3.53;2.17;;;14.70;99.90;;;;;;5040045;28;20108;-85
2023/05/12 05:46:14;;;;;;;3.65;2.35;;;14.70;99.90;;;;;;5015067;28;20447;-89
2023/05/12 05:48:39;;;;;;;3.10;2.17;;;14.70;99.90;;;;;;5028232;28;20168;-90
2023/05/12 05:51:05;;;;;;;4.05;2.80;;;14.70;99.90;;;;;;5037428;28;20021;-86
2023/05/12 05:53:31;;;;;;;4.72;2.83;;;14.70;99.90;;;;;;4999856;28;20159;-87
2023/05/12 05:55:58;;;;;;;4.18;2.58;;;14.70;99.90;;;;;;5023574;28;20750;-89
2023/05/12 05:58:23;;;;;;;3.90;2.50;;;14.70;99.90;;;;;;5027279;28;20537;-87
2023/05/12 06:00:49;;;;;;;3.75;2.55;;;14.70;99.90;;;;;;5025382;28;20023;-89
2023/05/12 06:03:15;;;;;;;3.95;2.63;;;14.70;99.90;;;;;;5026617;28;20170;-87
2023/05/12 06:05:42;;;;;;;4.53;2.63;;;14.70;99.90;;;;;;5040243;28;20029;-91
2023/05/12 06:08:09;;;;;;;4.63;2.78;;;14.70;99.90;;;;;;5029863;28;20059;-90
2023/05/12 06:10:36;;;;;;;3.45;2.35;;;14.70;99.90;;;;;;4994270;28;20510;-88
2023/05/12 06:13:02;;;;;;;4.18;2.90;;;14.70;99.90;;;;;;5039127;28;20045;-88
2023/05/12 06:15:28;;;;;;;4.63;2.40;;;14.70;99.90;;;;;;5015864;28;20021;-90
2023/05/12 06:17:54;;;;;;;3.47;2.35;;;14.70;99.90;;;;;;5030297;28;20086;-87
2023/05/12 06:20:22;;;;;;;3.90;2.63;;;14.70;99.90;;;;;;5024364;28;20017;-90
2023/05/12 06:22:48;;;;;;;3.30;2.13;;;14.70;99.90;;;;;;5025464;28;20098;-87
2023/05/12 06:25:14;;;;;;;3.30;2.30;;;14.70;99.90;;;;;;5019883;28;20021;-90
2023/05/12 06:27:40;;;;;;;3.90;2.40;;;14.70;99.90;;;;;;5027280;28;20221;-85
2023/05/12 06:30:06;;;;;;;3.03;2.03;;;14.70;99.90;;;;;;5031905;28;20513;-90
2023/05/12 06:32:32;;;;;;;3.37;2.23;;;14.70;99.90;;;;;;5020431;28;20134;-87
2023/05/12 06:34:58;;;;;;;3.08;2.20;;;14.70;99.90;;;;;;5024052;28;20616;-87
2023/05/12 06:37:24;;;;;;;3.35;2.25;;;14.70;99.90;;;;;;5010365;28;20292;-89
2023/05/12 06:39:50;;;;;;;4.18;2.30;;;14.70;99.90;;;;;;5023242;28;20076;-87
2023/05/12 06:42:16;;;;;;;4.03;2.47;;;14.80;99.90;;;;;;5041295;28;20526;-88
2023/05/12 06:44:42;;;;;;;4.15;2.10;;;14.70;99.90;;;;;;5023518;28;20094;-86
2023/05/12 06:47:08;;;;;;;3.22;2.00;;;14.80;99.90;;;;;;5032008;28;20036;-86
2023/05/12 06:49:37;;;;;;;3.22;1.95;;;14.80;99.90;;;;;;5010857;28;20021;-88
2023/05/12 06:52:05;;;;;;;2.57;1.93;;;14.80;99.90;;;;;;5031404;28;20045;-88
2023/05/12 06:54:31;;;;;;;3.47;2.15;;;14.80;99.90;;;;;;5044501;28;20029;-86
2023/05/12 06:56:57;;;;;;;3.85;2.17;;;14.80;99.90;;;;;;5017405;28;20082;-86
2023/05/12 06:59:22;;;;;;;3.10;2.00;;;14.80;99.90;;;;;;5038429;28;20646;-90
2023/05/12 07:01:49;;;;;;;3.08;2.00;;;14.80;99.90;;;;;;5021872;28;20024;-89
2023/05/12 07:04:15;;;;;;;3.42;2.15;;;14.80;99.90;;;;;;5034288;28;20037;-85
2023/05/12 07:06:41;;;;;;;3.40;2.20;;;14.80;99.90;;;;;;5026526;28;20115;-85
2023/05/12 07:09:07;;;;;;;3.10;1.98;;;14.90;99.90;;;;;;5036381;28;20178;-89
2023/05/12 07:11:34;;;;;;;3.92;2.22;;;14.90;99.90;;;;;;5032089;28;20045;-85
2023/05/12 07:14:00;;;;;;;3.10;1.80;;;14.90;99.90;;;;;;5037350;28;20021;-86
2023/05/12 07:16:26;;;;;;;3.30;2.10;;;14.90;99.90;;;;;;5025206;28;20958;-86
2023/05/12 07:18:53;;;;;;;2.50;1.67;;;14.90;99.90;;;;;;5055853;28;20510;-89
2023/05/12 07:21:20;;;;;;;3.40;1.98;;;14.90;99.90;;;;;;5034930;28;20461;-87
2023/05/12 07:23:46;;;;;;;3.43;1.90;;;14.90;99.90;;;;;;5034908;28;20115;-84
2023/05/12 07:26:12;;;;;;;3.50;2.20;;;15.00;99.90;;;;;;5053886;28;20033;-86
2023/05/12 07:28:38;;;;;;;4.45;2.50;;;15.00;99.90;;;;;;5014068;28;20040;-85
2023/05/12 07:31:06;;;;;;;5.43;3.08;;;15.00;99.90;;;;;;5049255;28;20021;-87
2023/05/12 07:33:33;;;;;;;7.17;3.67;;;15.00;99.90;;;;;;5044128;28;20048;-86
2023/05/12 07:35:59;;;;;;;6.53;3.42;;;15.10;99.90;;;;;;5018718;28;20025;-89
2023/05/12 07:38:25;;;;;;;7.43;4.00;;;15.10;99.90;;;;;;5011133;28;20312;-86
2023/05/12 07:40:52;;;;;;;7.72;4.13;;;15.10;99.90;;;;;;5039435;28;20047;-87
2023/05/12 07:43:18;;;;;;;8.33;4.50;;;15.10;99.90;;;;;;4992250;28;20020;-85
2023/05/12 07:45:45;;;;;;;9.35;4.80;;;15.10;99.90;;;;;;5032533;28;20021;-88
2023/05/12 07:48:10;;;;;;;12.00;5.82;;;15.10;99.90;;;;;;5015850;28;20119;-85
2023/05/12 07:50:36;;;;;;;11.40;5.75;;;15.20;99.90;;;;;;5017162;28;20108;-87
2023/05/12 07:53:03;;;;;;;12.97;6.33;;;15.20;99.90;;;;;;5032440;28;20069;-83
2023/05/12 07:55:29;;;;;;;11.75;6.15;;;15.20;99.90;;;;;;5035807;28;20103;-85
2023/05/12 07:57:55;;;;;;;12.43;5.95;;;15.30;99.90;;;;;;5006835;28;20870;-83
2023/05/12 08:00:21;;;;;;;12.15;5.82;;;15.30;99.90;;;;;;5054899;28;20044;-82
2023/05/12 08:02:47;;;;;;;11.37;6.00;;;15.40;99.90;;;;;;5024793;28;20421;-85
2023/05/12 08:05:12;;;;;;;14.57;7.00;;;15.40;99.90;;;;;;5041223;28;20132;-83
2023/05/12 08:07:42;;;;;;;14.43;7.47;;;15.40;99.90;;;;;;5048832;28;20037;-89
2023/05/12 08:10:09;;;;;;;15.63;7.38;;;15.50;99.90;;;;;;5030211;28;20048;-84
2023/05/12 08:12:35;;;;;;;15.57;7.17;;;15.50;99.90;;;;;;5023404;28;20355;-85
2023/05/12 08:15:01;;;;;;;17.13;8.50;;;15.60;99.90;;;;;;5023282;28;20020;-84
2023/05/12 08:17:27;;;;;;;15.48;7.57;;;15.60;99.90;;;;;;5040326;28;20654;-86
2023/05/12 08:19:52;;;;;;;15.17;6.97;;;15.70;99.90;;;;;;5022873;28;20227;-84
2023/05/12 08:22:18;;;;;;;14.73;6.78;;;15.80;99.90;;;;;;5020533;28;20085;-84
2023/05/12 08:24:45;;;;;;;14.77;7.35;;;15.90;99.90;;;;;;5030120;28;20283;-85
2023/05/12 08:27:11;;;;;;;14.43;6.95;;;15.90;99.90;;;;;;5024127;28;20041;-84
2023/05/12 08:29:37;;;;;;;12.27;6.40;;;15.90;99.90;;;;;;5019022;28;20029;-84
2023/05/12 08:32:03;;;;;;;13.95;7.13;;;16.00;99.90;;;;;;5032732;28;20067;-87
2023/05/12 08:34:29;;;;;;;12.75;6.15;;;16.00;99.90;;;;;;5038673;28;20048;-85
2023/05/12 08:36:55;;;;;;;15.27;6.53;;;16.10;99.90;;;;;;5053067;28;20021;-84
2023/05/12 08:39:21;;;;;;;13.15;6.57;;;16.10;99.90;;;;;;5042180;28;20033;-85
2023/05/12 08:42:03;;;;;;;11.90;6.40;;;16.10;99.90;;;;;;5027651;28;20226;-84
2023/05/12 08:44:30;;;;;;;10.10;5.50;;;16.20;99.90;;;;;;4997729;28;20102;-88
2023/05/12 08:46:57;;;;;;;9.25;5.30;;;16.20;99.90;;;;;;5045802;28;20382;-84
2023/05/12 08:49:25;;;;;;;9.55;5.18;;;16.30;99.90;;;;;;5034221;28;20025;-86
2023/05/12 08:51:53;;;;;;;9.67;5.10;;;16.30;99.90;;;;;;5009666;28;21224;-88
2023/05/12 08:54:22;;;;;;;8.77;4.47;;;16.30;99.90;;;;;;5019837;28;20055;-85
2023/05/12 08:56:51;;;;;;;9.18;4.93;;;16.30;99.90;;;;;;5012193;28;20033;-85
2023/05/12 08:59:17;;;;;;;10.52;4.80;;;16.40;99.90;;;;;;5047967;28;20099;-88
2023/05/12 09:01:46;;;;;;;10.02;5.63;;;16.40;99.90;;;;;;4990289;28;20098;-88
2023/05/12 09:04:14;;;;;;;10.33;5.50;;;16.50;99.90;;;;;;5033738;28;20198;-88
2023/05/12 09:06:41;;;;;;;8.73;4.88;;;16.50;99.90;;;;;;5024116;28;20033;-88
2023/05/12 09:09:07;;;;;;;9.65;5.10;;;16.60;99.90;;;;;;5033167;28;20624;-86
2023/05/12 09:11:33;;;;;;;7.75;4.32;;;16.60;99.90;;;;;;5035509;28;20033;-88
2023/05/12 09:14:05;;;;;;;8.90;4.70;;;16.70;99.90;;;;;;5031519;28;20090;-87
2023/05/12 09:16:34;;;;;;;7.23;4.20;;;16.70;99.90;;;;;;4988658;28;20715;-88
2023/05/12 09:19:01;;;;;;;8.40;4.40;;;16.70;99.90;;;;;;5014663;28;20469;-85
2023/05/12 09:21:27;;;;;;;6.38;3.45;;;16.70;99.90;;;;;;5018796;28;20393;-86
2023/05/12 09:24:04;;;;;;;6.80;3.90;;;16.70;99.90;;;;;;5043410;28;20394;-84
2023/05/12 09:26:31;;;;;;;6.80;3.53;;;16.80;99.90;;;;;;5045920;28;20079;-88
2023/05/12 09:29:07;;;;;;;7.83;4.20;;;16.80;99.90;;;;;;5014324;28;20543;-86
2023/05/12 09:31:33;;;;;;;7.38;3.75;;;16.80;99.90;;;;;;5017032;28;20116;-90
2023/05/12 09:34:01;;;;;;;7.50;4.10;;;16.80;99.90;;;;;;5026671;28;20229;-86
2023/05/12 09:36:27;;;;;;;5.95;3.30;;;16.90;99.90;;;;;;5044362;28;20739;-87
2023/05/12 09:39:03;;;;;;;7.45;3.80;;;17.00;99.90;;;;;;5030427;28;20530;-86
2023/05/12 09:41:35;;;;;;;8.53;4.23;;;17.00;99.90;;;;;;5040368;28;20036;-89
2023/05/12 09:44:02;;;;;;;8.90;5.00;;;17.10;99.90;;;;;;5050878;28;21388;-87
2023/05/12 09:46:27;;;;;;;10.15;5.05;;;17.30;99.90;;;;;;5022085;28;20501;-89
2023/05/12 09:48:57;;;;;;;9.20;4.88;;;17.50;99.90;;;;;;5017917;28;20118;-86
2023/05/12 09:51:25;;;;;;;10.67;5.47;;;17.70;99.90;;;;;;5028512;28;20017;-85
2023/05/12 09:53:51;;;;;;;8.70;4.90;;;18.00;99.90;;;;;;5014308;28;20233;-87
2023/05/12 09:56:18;;;;;;;9.13;4.43;;;18.20;99.90;;;;;;5039503;28;20032;-86
2023/05/12 09:58:46;;;;;;;8.15;5.18;;;18.40;99.90;;;;;;5030940;28;20798;-88
2023/05/12 10:01:13;;;;;;;10.77;4.57;;;18.60;99.90;;;;;;5032351;28;20054;-86
2023/05/12 10:03:46;;;;;;;7.00;4.37;;;18.70;99.90;;;;;;5025708;28;20033;-87
2023/05/12 10:06:15;;;;;;;8.38;4.28;;;18.70;99.90;;;;;;5033956;28;20032;-85
2023/05/12 10:08:49;;;;;;;6.43;4.03;;;18.70;99.90;;;;;;5003522;28;20024;-86
2023/05/12 10:11:16;;;;;;;6.30;3.72;;;18.70;99.90;;;;;;5034957;28;20426;-84
2023/05/12 10:13:42;;;;;;;6.28;3.72;;;18.60;99.90;;;;;;5030579;28;20112;-87
2023/05/12 10:16:08;;;;;;;6.70;3.70;;;18.60;99.90;;;;;;5028148;28;20067;-86
2023/05/12 10:18:34;;;;;;;5.70;3.60;;;18.50;99.90;;;;;;4996307;28;20112;-88
2023/05/12 10:21:02;;;;;;;6.50;3.75;;;18.40;99.90;;;;;;5021262;28;20279;-89
2023/05/12 10:23:28;;;;;;;5.95;3.53;;;18.30;99.90;;;;;;5017650;28;20047;-86
2023/05/12 10:26:00;;;;;;;6.18;4.15;;;18.30;99.90;;;;;;5039551;28;20397;-86
2023/05/12 10:28:29;;;;;;;5.97;3.90;;;18.30;99.90;;;;;;5038544;28;20024;-87
2023/05/12 10:30:59;;;;;;;6.45;4.15;;;18.20;99.90;;;;;;5036404;28;20230;-85
2023/05/12 10:33:26;;;;;;;6.45;4.30;;;18.30;99.90;;;;;;5008688;28;20025;-85
2023/05/12 10:35:52;;;;;;;7.65;4.00;;;18.20;99.90;;;;;;5046722;28;20406;-85
2023/05/12 10:38:21;;;;;;;5.90;3.70;;;18.20;99.90;;;;;;5041034;28;20752;-84
2023/05/12 10:40:54;;;;;;;6.13;3.80;;;18.20;99.90;;;;;;5035326;28;20099;-85
2023/05/12 10:43:26;;;;;;;5.55;3.55;;;18.20;99.90;;;;;;5036164;28;20102;-86
2023/05/12 10:46:28;;;;;;;5.72;3.42;;;18.20;99.90;;;;;;5032509;28;20033;-82
2023/05/12 10:49:03;;;;;;;4.97;3.20;;;18.20;99.90;;;;;;4990530;28;20033;-85
2023/05/12 10:51:29;;;;;;;4.47;3.13;;;18.20;99.90;;;;;;5043319;28;20028;-86
2023/05/12 10:54:04;;;;;;;5.25;3.40;;;18.20;99.90;;;;;;5022225;28;20037;-84
2023/05/12 10:56:42;;;;;;;5.22;3.40;;;18.20;99.90;;;;;;5035668;28;20055;-85
2023/05/12 10:59:22;;;;;;;5.43;3.88;;;18.10;99.90;;;;;;5056413;28;20078;-83
2023/05/12 11:02:04;;;;;;;5.53;3.60;;;18.10;99.90;;;;;;5027349;28;20521;-84
2023/05/12 11:04:46;;;;;;;4.93;3.30;;;18.10;99.90;;;;;;4983136;28;20032;-86
2023/05/12 11:07:14;;;;;;;4.72;3.17;;;18.00;99.90;;;;;;5031103;28;20032;-84
2023/05/12 11:09:43;;;;;;;4.88;3.30;;;17.90;99.90;;;;;;5012676;28;20046;-87
2023/05/12 11:12:10;;;;;;;9.95;6.40;;;17.80;99.90;;;;;;5025331;28;20029;-85
2023/05/12 11:14:39;;;;;;;7.70;5.20;;;17.80;99.90;;;;;;5028662;28;21835;-85
2023/05/12 11:17:06;;;;;;;7.63;4.43;;;17.90;99.90;;;;;;5035665;28;20099;-86
2023/05/12 11:19:32;;;;;;;5.07;4.00;;;18.00;99.90;;;;;;4993120;28;20033;-83
2023/05/12 11:22:08;;;;;;;5.10;3.97;;;18.10;99.90;;;;;;5034241;28;20445;-86
2023/05/12 11:24:35;;;;;;;4.25;3.40;;;18.30;99.90;;;;;;5023746;28;20047;-84
2023/05/12 11:27:03;;;;;;;5.15;3.67;;;18.30;99.90;;;;;;5024026;28;20029;-85
2023/05/12 11:29:29;;;;;;;5.60;3.80;;;18.40;99.90;;;;;;5017667;28;20025;-84
2023/05/12 11:31:55;;;;;;;4.75;3.63;;;18.40;99.90;;;;;;5036407;28;20027;-86
2023/05/12 11:34:22;;;;;;;5.07;4.05;;;18.50;99.90;;;;;;4999103;28;20440;-85
2023/05/12 11:36:58;;;;;;;5.40;4.15;;;18.50;99.90;;;;;;5054288;28;20440;-87
2023/05/12 11:39:26;;;;;;;4.80;3.80;;;18.70;99.90;;;;;;5027219;28;20160;-87
2023/05/12 11:41:53;;;;;;;4.53;3.60;;;18.80;99.90;;;;;;5040695;28;20075;-87
2023/05/12 11:44:23;;;;;;;4.45;3.15;;;19.00;99.90;;;;;;5065432;28;20356;-86
2023/05/12 11:46:56;;;;;;;3.38;2.90;;;19.20;99.90;;;;;;5035087;28;20032;-87
2023/05/12 11:49:22;;;;;;;3.63;2.92;;;19.40;99.90;;;;;;5037173;28;20029;-84
2023/05/12 11:51:51;;;;;;;4.27;2.60;;;19.60;99.90;;;;;;5029446;28;20083;-89
2023/05/12 11:54:18;;;;;;;3.00;2.53;;;19.70;99.90;;;;;;5026908;28;20268;-86
2023/05/12 11:56:49;;;;;;;2.40;2.20;;;19.80;99.90;;;;;;5021930;28;20033;-85
2023/05/12 11:59:29;;;;;;;2.30;2.10;;;19.90;99.90;;;;;;5029387;28;20424;-88
2023/05/12 12:01:56;;;;;;;2.45;1.98;;;19.90;99.90;;;;;;5051876;28;20421;-85
2023/05/12 12:04:39;;;;;;;2.00;1.80;;;19.90;99.90;;;;;;5034745;28;20047;-86
2023/05/12 12:07:05;;;;;;;2.20;1.90;;;19.90;99.90;;;;;;5011968;28;20072;-86
2023/05/12 12:09:37;;;;;;;2.65;1.95;;;19.90;99.90;;;;;;5051254;28;20123;-88
2023/05/12 12:12:05;;;;;;;2.10;1.73;;;19.90;99.90;;;;;;5017658;28;20124;-87
2023/05/12 12:14:31;;;;;;;2.20;2.00;;;19.80;99.90;;;;;;5030757;28;20024;-86
2023/05/12 12:16:59;;;;;;;2.20;1.83;;;19.80;99.90;;;;;;5018882;28;20033;-86
2023/05/12 12:19:25;;;;;;;2.00;1.80;;;19.80;99.90;;;;;;5038131;28;20032;-86
2023/05/12 12:21:51;;;;;;;2.20;2.00;;;19.70;99.90;;;;;;5011765;28;20048;-87
2023/05/12 12:24:17;;;;;;;2.22;1.85;;;19.70;99.90;;;;;;5030284;28;20237;-86
2023/05/12 12:26:43;;;;;;;1.70;1.60;;;19.70;99.90;;;;;;5028626;28;20456;-85
2023/05/12 12:29:08;;;;;;;2.75;1.70;;;19.70;99.90;;;;;;5007072;28;20410;-86
2023/05/12 12:31:35;;;;;;;2.00;1.70;;;19.70;99.90;;;;;;5024023;28;20049;-86
2023/05/12 12:34:02;;;;;;;2.20;1.80;;;19.70;99.90;;;;;;5045983;28;20592;-88
2023/05/12 12:36:28;;;;;;;1.90;1.60;;;19.70;99.90;;;;;;5027232;28;20355;-86
2023/05/12 12:38:54;;;;;;;2.50;1.77;;;19.90;99.90;;;;;;5030150;28;20452;-87
2023/05/12 12:41:21;;;;;;;2.10;1.90;;;20.10;99.90;;;;;;5023617;28;20258;-88
2023/05/12 12:43:46;;;;;;;2.45;1.77;;;20.20;99.90;;;;;;5010171;28;20033;-88
2023/05/12 12:46:12;;;;;;;2.70;1.90;;;20.40;99.90;;;;;;5038241;28;20257;-85